sensor_id;sensor_type;location;lat;lon;timestamp;temperature;humidity
68511;SHT31;55512;50.102;19.958;2023-09-08T00:02:16;18.28;66.29
68511;SHT31;55512;50.102;19.958;2023-09-08T00:04:41;18.27;66.33
68511;SHT31;55512;50.102;19.958;2023-09-08T00:07:07;18.25;66.43
68511;SHT31;55512;50.102;19.958;2023-09-08T00:09:32;18.24;66.58
68511;SHT31;55512;50.102;19.958;2023-09-08T00:11:58;18.23;66.61
68511;SHT31;55512;50.102;19.958;2023-09-08T00:14:23;18.24;66.73
68511;SHT31;55512;50.102;19.958;2023-09-08T00:16:51;18.23;66.84
68511;SHT31;55512;50.102;19.958;2023-09-08T00:19:19;18.23;66.96
68511;SHT31;55512;50.102;19.958;2023-09-08T00:21:45;18.25;67.08
68511;SHT31;55512;50.102;19.958;2023-09-08T00:24:11;18.24;67.17
68511;SHT31;55512;50.102;19.958;2023-09-08T00:26:37;18.26;67.27
68511;SHT31;55512;50.102;19.958;2023-09-08T00:29:02;18.26;67.29
68511;SHT31;55512;50.102;19.958;2023-09-08T00:31:28;18.27;67.33
68511;SHT31;55512;50.102;19.958;2023-09-08T00:33:53;18.29;67.42
68511;SHT31;55512;50.102;19.958;2023-09-08T00:36:19;18.29;67.44
68511;SHT31;55512;50.102;19.958;2023-09-08T00:38:44;18.29;67.46
68511;SHT31;55512;50.102;19.958;2023-09-08T00:41:10;18.29;67.52
68511;SHT31;55512;50.102;19.958;2023-09-08T00:43:35;18.28;67.52
68511;SHT31;55512;50.102;19.958;2023-09-08T00:46:01;18.27;67.59
68511;SHT31;55512;50.102;19.958;2023-09-08T00:48:27;18.26;67.52
68511;SHT31;55512;50.102;19.958;2023-09-08T00:50:54;18.25;67.52
68511;SHT31;55512;50.102;19.958;2023-09-08T00:53:20;18.24;67.56
68511;SHT31;55512;50.102;19.958;2023-09-08T00:55:46;18.21;67.59
68511;SHT31;55512;50.102;19.958;2023-09-08T00:58:13;18.19;67.59
68511;SHT31;55512;50.102;19.958;2023-09-08T01:00:38;18.16;67.47
68511;SHT31;55512;50.102;19.958;2023-09-08T01:03:04;18.10;67.41
68511;SHT31;55512;50.102;19.958;2023-09-08T01:05:29;18.04;67.46
68511;SHT31;55512;50.102;19.958;2023-09-08T01:07:55;18.01;67.57
68511;SHT31;55512;50.102;19.958;2023-09-08T01:10:24;18.00;67.60
68511;SHT31;55512;50.102;19.958;2023-09-08T01:12:49;18.00;67.68
68511;SHT31;55512;50.102;19.958;2023-09-08T01:15:15;18.07;67.57
68511;SHT31;55512;50.102;19.958;2023-09-08T01:17:40;18.18;67.20
68511;SHT31;55512;50.102;19.958;2023-09-08T01:20:18;18.18;67.11
68511;SHT31;55512;50.102;19.958;2023-09-08T01:23:25;18.19;67.02
68511;SHT31;55512;50.102;19.958;2023-09-08T01:25:57;18.20;66.92
68511;SHT31;55512;50.102;19.958;2023-09-08T01:28:32;18.17;66.90
68511;SHT31;55512;50.102;19.958;2023-09-08T01:30:59;18.11;66.90
68511;SHT31;55512;50.102;19.958;2023-09-08T01:33:25;18.06;66.94
68511;SHT31;55512;50.102;19.958;2023-09-08T01:35:52;18.03;66.99
68511;SHT31;55512;50.102;19.958;2023-09-08T01:38:18;17.98;67.04
68511;SHT31;55512;50.102;19.958;2023-09-08T01:40:43;17.92;67.10
68511;SHT31;55512;50.102;19.958;2023-09-08T01:43:09;17.87;67.21
68511;SHT31;55512;50.102;19.958;2023-09-08T01:45:34;17.84;67.31
68511;SHT31;55512;50.102;19.958;2023-09-08T01:48:00;17.80;67.32
68511;SHT31;55512;50.102;19.958;2023-09-08T01:50:25;17.75;67.35
68511;SHT31;55512;50.102;19.958;2023-09-08T01:52:51;17.70;67.39
68511;SHT31;55512;50.102;19.958;2023-09-08T01:55:17;17.65;67.48
68511;SHT31;55512;50.102;19.958;2023-09-08T01:57:43;17.60;67.50
68511;SHT31;55512;50.102;19.958;2023-09-08T02:00:09;17.48;67.78
68511;SHT31;55512;50.102;19.958;2023-09-08T02:02:36;17.30;68.26
68511;SHT31;55512;50.102;19.958;2023-09-08T02:05:01;17.27;68.36
68511;SHT31;55512;50.102;19.958;2023-09-08T02:07:27;17.22;68.56
68511;SHT31;55512;50.102;19.958;2023-09-08T02:09:52;17.17;68.79
68511;SHT31;55512;50.102;19.958;2023-09-08T02:12:18;17.11;68.98
68511;SHT31;55512;50.102;19.958;2023-09-08T02:14:43;17.05;69.16
68511;SHT31;55512;50.102;19.958;2023-09-08T02:17:09;17.02;69.34
68511;SHT31;55512;50.102;19.958;2023-09-08T02:19:34;16.98;69.46
68511;SHT31;55512;50.102;19.958;2023-09-08T02:22:00;16.93;69.53
68511;SHT31;55512;50.102;19.958;2023-09-08T02:24:25;16.90;69.50
68511;SHT31;55512;50.102;19.958;2023-09-08T02:26:51;16.87;69.49
68511;SHT31;55512;50.102;19.958;2023-09-08T02:29:16;16.82;69.57
68511;SHT31;55512;50.102;19.958;2023-09-08T02:31:42;16.77;69.69
68511;SHT31;55512;50.102;19.958;2023-09-08T02:34:08;16.76;69.79
68511;SHT31;55512;50.102;19.958;2023-09-08T02:36:33;16.76;69.95
68511;SHT31;55512;50.102;19.958;2023-09-08T02:38:59;16.75;70.04
68511;SHT31;55512;50.102;19.958;2023-09-08T02:41:24;16.74;70.14
68511;SHT31;55512;50.102;19.958;2023-09-08T02:43:50;16.74;70.28
68511;SHT31;55512;50.102;19.958;2023-09-08T02:46:15;16.75;70.40
68511;SHT31;55512;50.102;19.958;2023-09-08T02:48:41;16.75;70.57
68511;SHT31;55512;50.102;19.958;2023-09-08T02:51:07;16.74;70.63
68511;SHT31;55512;50.102;19.958;2023-09-08T02:53:33;16.71;70.66
68511;SHT31;55512;50.102;19.958;2023-09-08T02:55:58;16.68;70.61
68511;SHT31;55512;50.102;19.958;2023-09-08T02:58:25;16.67;70.58
68511;SHT31;55512;50.102;19.958;2023-09-08T03:00:52;16.68;70.44
68511;SHT31;55512;50.102;19.958;2023-09-08T03:03:18;16.66;70.31
68511;SHT31;55512;50.102;19.958;2023-09-08T03:05:46;16.64;70.23
68511;SHT31;55512;50.102;19.958;2023-09-08T03:08:12;16.63;70.31
68511;SHT31;55512;50.102;19.958;2023-09-08T03:10:37;16.62;70.48
68511;SHT31;55512;50.102;19.958;2023-09-08T03:13:05;16.60;70.53
68511;SHT31;55512;50.102;19.958;2023-09-08T03:15:31;16.59;70.51
68511;SHT31;55512;50.102;19.958;2023-09-08T03:17:59;16.59;70.50
68511;SHT31;55512;50.102;19.958;2023-09-08T03:20:25;16.57;70.59
68511;SHT31;55512;50.102;19.958;2023-09-08T03:22:54;16.52;70.84
68511;SHT31;55512;50.102;19.958;2023-09-08T03:25:20;16.49;70.90
68511;SHT31;55512;50.102;19.958;2023-09-08T03:27:46;16.45;70.88
68511;SHT31;55512;50.102;19.958;2023-09-08T03:30:12;16.45;70.88
68511;SHT31;55512;50.102;19.958;2023-09-08T03:32:38;16.42;70.78
68511;SHT31;55512;50.102;19.958;2023-09-08T03:35:03;16.39;70.79
68511;SHT31;55512;50.102;19.958;2023-09-08T03:37:36;16.35;70.88
68511;SHT31;55512;50.102;19.958;2023-09-08T03:40:01;16.31;70.96
68511;SHT31;55512;50.102;19.958;2023-09-08T03:42:30;16.31;70.97
68511;SHT31;55512;50.102;19.958;2023-09-08T03:44:56;16.32;71.00
68511;SHT31;55512;50.102;19.958;2023-09-08T03:47:21;16.29;71.00
68511;SHT31;55512;50.102;19.958;2023-09-08T03:49:46;16.27;71.05
68511;SHT31;55512;50.102;19.958;2023-09-08T03:52:12;16.26;70.89
68511;SHT31;55512;50.102;19.958;2023-09-08T03:54:37;16.23;70.66
68511;SHT31;55512;50.102;19.958;2023-09-08T03:57:03;16.18;70.61
68511;SHT31;55512;50.102;19.958;2023-09-08T03:59:29;16.13;70.42
68511;SHT31;55512;50.102;19.958;2023-09-08T04:01:54;16.09;70.21
68511;SHT31;55512;50.102;19.958;2023-09-08T04:04:20;16.03;70.16
68511;SHT31;55512;50.102;19.958;2023-09-08T04:06:45;15.95;70.23
68511;SHT31;55512;50.102;19.958;2023-09-08T04:09:11;15.90;70.50
68511;SHT31;55512;50.102;19.958;2023-09-08T04:11:36;15.85;70.56
68511;SHT31;55512;50.102;19.958;2023-09-08T04:14:02;15.80;70.80
68511;SHT31;55512;50.102;19.958;2023-09-08T04:16:28;15.79;70.97
68511;SHT31;55512;50.102;19.958;2023-09-08T04:18:54;15.80;71.22
68511;SHT31;55512;50.102;19.958;2023-09-08T04:21:19;15.83;71.40
68511;SHT31;55512;50.102;19.958;2023-09-08T04:23:44;15.87;71.54
68511;SHT31;55512;50.102;19.958;2023-09-08T04:26:11;15.92;71.70
68511;SHT31;55512;50.102;19.958;2023-09-08T04:28:37;15.97;71.85
68511;SHT31;55512;50.102;19.958;2023-09-08T04:31:02;16.01;71.85
68511;SHT31;55512;50.102;19.958;2023-09-08T04:33:29;16.03;71.83
68511;SHT31;55512;50.102;19.958;2023-09-08T04:35:54;16.02;71.76
68511;SHT31;55512;50.102;19.958;2023-09-08T04:38:20;16.02;71.77
68511;SHT31;55512;50.102;19.958;2023-09-08T04:40:45;16.02;71.82
68511;SHT31;55512;50.102;19.958;2023-09-08T04:43:11;16.04;71.79
68511;SHT31;55512;50.102;19.958;2023-09-08T04:45:37;16.06;71.85
68511;SHT31;55512;50.102;19.958;2023-09-08T04:48:03;16.08;72.10
68511;SHT31;55512;50.102;19.958;2023-09-08T04:50:30;16.11;72.26
68511;SHT31;55512;50.102;19.958;2023-09-08T04:52:55;16.20;72.20
68511;SHT31;55512;50.102;19.958;2023-09-08T04:55:20;16.27;72.20
68511;SHT31;55512;50.102;19.958;2023-09-08T04:57:46;16.34;72.19
68511;SHT31;55512;50.102;19.958;2023-09-08T05:00:12;16.40;72.10
68511;SHT31;55512;50.102;19.958;2023-09-08T05:02:38;16.45;72.10
68511;SHT31;55512;50.102;19.958;2023-09-08T05:05:03;16.51;72.07
68511;SHT31;55512;50.102;19.958;2023-09-08T05:07:29;16.55;72.00
68511;SHT31;55512;50.102;19.958;2023-09-08T05:09:55;16.59;72.01
68511;SHT31;55512;50.102;19.958;2023-09-08T05:12:20;16.63;72.00
68511;SHT31;55512;50.102;19.958;2023-09-08T05:14:46;16.67;72.07
68511;SHT31;55512;50.102;19.958;2023-09-08T05:17:11;16.71;72.09
68511;SHT31;55512;50.102;19.958;2023-09-08T05:19:37;16.77;72.07
68511;SHT31;55512;50.102;19.958;2023-09-08T05:22:05;16.83;72.05
68511;SHT31;55512;50.102;19.958;2023-09-08T05:24:33;16.91;72.10
68511;SHT31;55512;50.102;19.958;2023-09-08T05:26:59;16.99;72.01
68511;SHT31;55512;50.102;19.958;2023-09-08T05:29:24;17.05;71.96
68511;SHT31;55512;50.102;19.958;2023-09-08T05:31:50;17.13;71.89
68511;SHT31;55512;50.102;19.958;2023-09-08T05:34:16;17.20;71.81
68511;SHT31;55512;50.102;19.958;2023-09-08T05:36:42;17.26;71.80
68511;SHT31;55512;50.102;19.958;2023-09-08T05:39:08;17.32;71.72
68511;SHT31;55512;50.102;19.958;2023-09-08T05:41:33;17.39;71.70
68511;SHT31;55512;50.102;19.958;2023-09-08T05:43:59;17.44;71.70
68511;SHT31;55512;50.102;19.958;2023-09-08T05:46:25;17.49;71.78
68511;SHT31;55512;50.102;19.958;2023-09-08T05:48:51;17.57;71.78
68511;SHT31;55512;50.102;19.958;2023-09-08T05:51:16;17.64;71.80
68511;SHT31;55512;50.102;19.958;2023-09-08T05:53:42;17.71;71.78
68511;SHT31;55512;50.102;19.958;2023-09-08T05:56:07;17.76;71.75
68511;SHT31;55512;50.102;19.958;2023-09-08T05:58:33;17.84;71.69
68511;SHT31;55512;50.102;19.958;2023-09-08T06:01:03;17.92;71.59
68511;SHT31;55512;50.102;19.958;2023-09-08T06:03:29;17.99;71.50
68511;SHT31;55512;50.102;19.958;2023-09-08T06:05:55;18.07;71.51
68511;SHT31;55512;50.102;19.958;2023-09-08T06:08:23;18.13;71.50
68511;SHT31;55512;50.102;19.958;2023-09-08T06:10:49;18.20;71.47
68511;SHT31;55512;50.102;19.958;2023-09-08T06:13:15;18.27;71.41
68511;SHT31;55512;50.102;19.958;2023-09-08T06:15:40;18.34;71.40
68511;SHT31;55512;50.102;19.958;2023-09-08T06:18:06;18.39;71.40
68511;SHT31;55512;50.102;19.958;2023-09-08T06:20:31;18.44;71.40
68511;SHT31;55512;50.102;19.958;2023-09-08T06:22:57;18.51;71.30
68511;SHT31;55512;50.102;19.958;2023-09-08T06:25:22;18.57;71.19
68511;SHT31;55512;50.102;19.958;2023-09-08T06:27:48;18.64;71.12
68511;SHT31;55512;50.102;19.958;2023-09-08T06:30:13;18.70;71.08
68511;SHT31;55512;50.102;19.958;2023-09-08T06:32:41;18.78;71.06
68511;SHT31;55512;50.102;19.958;2023-09-08T06:35:07;18.85;70.94
68511;SHT31;55512;50.102;19.958;2023-09-08T06:37:36;18.91;70.87
68511;SHT31;55512;50.102;19.958;2023-09-08T06:40:03;18.99;70.79
68511;SHT31;55512;50.102;19.958;2023-09-08T06:42:31;19.07;70.67
68511;SHT31;55512;50.102;19.958;2023-09-08T06:44:58;19.13;70.52
68511;SHT31;55512;50.102;19.958;2023-09-08T06:47:25;19.19;70.42
68511;SHT31;55512;50.102;19.958;2023-09-08T06:49:50;19.24;70.32
68511;SHT31;55512;50.102;19.958;2023-09-08T06:52:16;19.30;70.18
68511;SHT31;55512;50.102;19.958;2023-09-08T06:54:43;19.35;70.14
68511;SHT31;55512;50.102;19.958;2023-09-08T06:57:10;19.42;70.07
68511;SHT31;55512;50.102;19.958;2023-09-08T06:59:37;19.48;69.99
68511;SHT31;55512;50.102;19.958;2023-09-08T07:02:02;19.55;69.87
68511;SHT31;55512;50.102;19.958;2023-09-08T07:04:29;19.61;69.75
68511;SHT31;55512;50.102;19.958;2023-09-08T07:06:55;19.68;69.70
68511;SHT31;55512;50.102;19.958;2023-09-08T07:09:21;19.74;69.60
68511;SHT31;55512;50.102;19.958;2023-09-08T07:11:46;19.80;69.49
68511;SHT31;55512;50.102;19.958;2023-09-08T07:14:12;19.87;69.40
68511;SHT31;55512;50.102;19.958;2023-09-08T07:16:37;19.92;69.30
68511;SHT31;55512;50.102;19.958;2023-09-08T07:19:03;19.98;69.16
68511;SHT31;55512;50.102;19.958;2023-09-08T07:21:28;20.04;69.03
68511;SHT31;55512;50.102;19.958;2023-09-08T07:23:54;20.10;68.83
68511;SHT31;55512;50.102;19.958;2023-09-08T07:26:19;20.17;68.71
68511;SHT31;55512;50.102;19.958;2023-09-08T07:28:45;20.23;68.62
68511;SHT31;55512;50.102;19.958;2023-09-08T07:31:10;20.29;68.52
68511;SHT31;55512;50.102;19.958;2023-09-08T07:33:36;20.35;68.37
68511;SHT31;55512;50.102;19.958;2023-09-08T07:36:04;20.43;68.22
68511;SHT31;55512;50.102;19.958;2023-09-08T07:38:31;20.51;68.20
68511;SHT31;55512;50.102;19.958;2023-09-08T07:40:57;20.58;68.11
68511;SHT31;55512;50.102;19.958;2023-09-08T07:43:24;20.66;67.96
68511;SHT31;55512;50.102;19.958;2023-09-08T07:45:50;20.73;67.82
68511;SHT31;55512;50.102;19.958;2023-09-08T07:48:16;20.79;67.62
68511;SHT31;55512;50.102;19.958;2023-09-08T07:50:42;20.88;67.42
68511;SHT31;55512;50.102;19.958;2023-09-08T07:53:07;20.93;67.17
68511;SHT31;55512;50.102;19.958;2023-09-08T07:55:33;20.99;66.97
68511;SHT31;55512;50.102;19.958;2023-09-08T07:57:58;21.07;66.86
68511;SHT31;55512;50.102;19.958;2023-09-08T08:00:25;21.13;66.61
68511;SHT31;55512;50.102;19.958;2023-09-08T08:02:53;21.17;66.41
68511;SHT31;55512;50.102;19.958;2023-09-08T08:05:20;21.25;66.18
68511;SHT31;55512;50.102;19.958;2023-09-08T08:07:46;21.31;66.08
68511;SHT31;55512;50.102;19.958;2023-09-08T08:10:12;21.38;65.91
68511;SHT31;55512;50.102;19.958;2023-09-08T08:12:41;21.44;65.79
68511;SHT31;55512;50.102;19.958;2023-09-08T08:15:08;21.51;65.58
68511;SHT31;55512;50.102;19.958;2023-09-08T08:17:35;21.58;65.28
68511;SHT31;55512;50.102;19.958;2023-09-08T08:20:02;21.62;65.24
68511;SHT31;55512;50.102;19.958;2023-09-08T08:22:34;21.68;65.08
68511;SHT31;55512;50.102;19.958;2023-09-08T08:25:02;21.73;64.88
68511;SHT31;55512;50.102;19.958;2023-09-08T08:27:29;21.79;64.68
68511;SHT31;55512;50.102;19.958;2023-09-08T08:29:56;21.86;64.50
68511;SHT31;55512;50.102;19.958;2023-09-08T08:32:24;21.93;64.42
68511;SHT31;55512;50.102;19.958;2023-09-08T08:34:50;22.00;64.31
68511;SHT31;55512;50.102;19.958;2023-09-08T08:37:16;22.07;63.98
68511;SHT31;55512;50.102;19.958;2023-09-08T08:39:42;22.14;63.77
68511;SHT31;55512;50.102;19.958;2023-09-08T08:42:07;22.20;63.51
68511;SHT31;55512;50.102;19.958;2023-09-08T08:44:34;22.27;63.32
68511;SHT31;55512;50.102;19.958;2023-09-08T08:47:02;22.34;63.21
68511;SHT31;55512;50.102;19.958;2023-09-08T08:49:30;22.41;63.09
68511;SHT31;55512;50.102;19.958;2023-09-08T08:51:57;22.47;62.89
68511;SHT31;55512;50.102;19.958;2023-09-08T08:54:24;22.53;62.56
68511;SHT31;55512;50.102;19.958;2023-09-08T08:56:50;22.60;62.53
68511;SHT31;55512;50.102;19.958;2023-09-08T08:59:16;22.66;62.67
68511;SHT31;55512;50.102;19.958;2023-09-08T09:01:43;22.73;62.23
68511;SHT31;55512;50.102;19.958;2023-09-08T09:04:10;22.80;61.97
68511;SHT31;55512;50.102;19.958;2023-09-08T09:06:37;22.89;61.86
68511;SHT31;55512;50.102;19.958;2023-09-08T09:09:02;22.94;61.78
68511;SHT31;55512;50.102;19.958;2023-09-08T09:11:33;23.03;61.69
68511;SHT31;55512;50.102;19.958;2023-09-08T09:13:58;23.11;61.52
68511;SHT31;55512;50.102;19.958;2023-09-08T09:16:24;23.20;61.12
68511;SHT31;55512;50.102;19.958;2023-09-08T09:18:56;23.27;60.72
68511;SHT31;55512;50.102;19.958;2023-09-08T09:21:41;23.33;60.10
68511;SHT31;55512;50.102;19.958;2023-09-08T09:24:08;23.41;59.82
68511;SHT31;55512;50.102;19.958;2023-09-08T09:26:52;23.50;59.66
68511;SHT31;55512;50.102;19.958;2023-09-08T09:29:18;23.57;59.51
68511;SHT31;55512;50.102;19.958;2023-09-08T09:31:51;23.64;59.34
68511;SHT31;55512;50.102;19.958;2023-09-08T09:34:22;23.71;59.10
68511;SHT31;55512;50.102;19.958;2023-09-08T09:36:49;23.81;58.66
68511;SHT31;55512;50.102;19.958;2023-09-08T09:39:19;23.95;58.28
68511;SHT31;55512;50.102;19.958;2023-09-08T09:41:46;24.09;58.16
68511;SHT31;55512;50.102;19.958;2023-09-08T09:44:13;24.23;58.06
68511;SHT31;55512;50.102;19.958;2023-09-08T09:46:44;24.36;57.50
68511;SHT31;55512;50.102;19.958;2023-09-08T09:49:14;24.48;57.05
68511;SHT31;55512;50.102;19.958;2023-09-08T09:51:45;24.65;56.54
68511;SHT31;55512;50.102;19.958;2023-09-08T09:54:13;24.81;55.85
68511;SHT31;55512;50.102;19.958;2023-09-08T09:56:40;24.95;55.35
68511;SHT31;55512;50.102;19.958;2023-09-08T09:59:08;25.08;55.10
68511;SHT31;55512;50.102;19.958;2023-09-08T10:01:35;25.22;54.80
68511;SHT31;55512;50.102;19.958;2023-09-08T10:04:03;25.37;54.36
68511;SHT31;55512;50.102;19.958;2023-09-08T10:06:37;25.47;53.85
68511;SHT31;55512;50.102;19.958;2023-09-08T10:09:05;25.61;53.51
68511;SHT31;55512;50.102;19.958;2023-09-08T10:11:47;25.75;52.95
68511;SHT31;55512;50.102;19.958;2023-09-08T10:14:17;25.88;52.38
68511;SHT31;55512;50.102;19.958;2023-09-08T10:16:44;26.03;52.06
68511;SHT31;55512;50.102;19.958;2023-09-08T10:19:14;26.17;51.87
68511;SHT31;55512;50.102;19.958;2023-09-08T10:21:42;26.30;51.19
68511;SHT31;55512;50.102;19.958;2023-09-08T10:24:26;26.41;50.53
68511;SHT31;55512;50.102;19.958;2023-09-08T10:29:37;26.64;49.79
68511;SHT31;55512;50.102;19.958;2023-09-08T10:32:04;26.76;49.49
68511;SHT31;55512;50.102;19.958;2023-09-08T10:34:33;26.85;48.95
68511;SHT31;55512;50.102;19.958;2023-09-08T10:37:01;26.94;48.17
68511;SHT31;55512;50.102;19.958;2023-09-08T10:39:28;26.97;48.37
68511;SHT31;55512;50.102;19.958;2023-09-08T10:47:12;27.24;47.52
68511;SHT31;55512;50.102;19.958;2023-09-08T10:49:38;27.30;47.02
68511;SHT31;55512;50.102;19.958;2023-09-08T10:52:09;27.35;46.96
68511;SHT31;55512;50.102;19.958;2023-09-08T10:54:44;27.44;46.74
68511;SHT31;55512;50.102;19.958;2023-09-08T10:57:16;27.54;46.24
68511;SHT31;55512;50.102;19.958;2023-09-08T10:59:45;27.61;45.72
68511;SHT31;55512;50.102;19.958;2023-09-08T11:02:38;27.68;45.75
68511;SHT31;55512;50.102;19.958;2023-09-08T11:05:07;27.79;45.34
68511;SHT31;55512;50.102;19.958;2023-09-08T11:07:39;27.87;44.90
68511;SHT31;55512;50.102;19.958;2023-09-08T11:10:09;27.91;44.64
68511;SHT31;55512;50.102;19.958;2023-09-08T11:12:37;27.94;44.68
68511;SHT31;55512;50.102;19.958;2023-09-08T11:15:04;27.93;44.63
68511;SHT31;55512;50.102;19.958;2023-09-08T11:17:34;27.92;44.77
68511;SHT31;55512;50.102;19.958;2023-09-08T11:20:04;27.94;44.79
68511;SHT31;55512;50.102;19.958;2023-09-08T11:22:34;27.98;44.79
68511;SHT31;55512;50.102;19.958;2023-09-08T11:25:01;28.02;44.70
68511;SHT31;55512;50.102;19.958;2023-09-08T11:27:30;28.00;44.63
68511;SHT31;55512;50.102;19.958;2023-09-08T11:29:56;27.99;44.49
68511;SHT31;55512;50.102;19.958;2023-09-08T11:32:23;28.00;44.58
68511;SHT31;55512;50.102;19.958;2023-09-08T11:34:49;28.03;44.61
68511;SHT31;55512;50.102;19.958;2023-09-08T11:37:17;28.08;44.20
68511;SHT31;55512;50.102;19.958;2023-09-08T11:39:46;28.11;43.91
68511;SHT31;55512;50.102;19.958;2023-09-08T11:42:13;28.11;43.77
68511;SHT31;55512;50.102;19.958;2023-09-08T11:44:41;28.08;43.92
68511;SHT31;55512;50.102;19.958;2023-09-08T11:47:08;28.11;44.21
68511;SHT31;55512;50.102;19.958;2023-09-08T11:52:02;28.27;43.74
68511;SHT31;55512;50.102;19.958;2023-09-08T11:57:04;28.36;43.80
68511;SHT31;55512;50.102;19.958;2023-09-08T11:59:33;28.42;43.65
68511;SHT31;55512;50.102;19.958;2023-09-08T12:02:00;28.50;43.72
68511;SHT31;55512;50.102;19.958;2023-09-08T12:04:26;28.59;43.78
68511;SHT31;55512;50.102;19.958;2023-09-08T12:06:53;28.69;43.47
68511;SHT31;55512;50.102;19.958;2023-09-08T12:09:21;28.77;42.83
68511;SHT31;55512;50.102;19.958;2023-09-08T12:11:47;28.86;42.74
68511;SHT31;55512;50.102;19.958;2023-09-08T12:14:13;28.97;42.93
68511;SHT31;55512;50.102;19.958;2023-09-08T12:16:41;29.06;42.68
68511;SHT31;55512;50.102;19.958;2023-09-08T12:19:08;29.14;42.33
68511;SHT31;55512;50.102;19.958;2023-09-08T12:21:56;29.20;42.34
68511;SHT31;55512;50.102;19.958;2023-09-08T12:27:22;29.37;41.80
68511;SHT31;55512;50.102;19.958;2023-09-08T12:30:06;29.43;41.59
68511;SHT31;55512;50.102;19.958;2023-09-08T12:32:33;29.47;41.49
68511;SHT31;55512;50.102;19.958;2023-09-08T12:35:02;29.57;41.59
68511;SHT31;55512;50.102;19.958;2023-09-08T12:37:29;29.70;41.26
68511;SHT31;55512;50.102;19.958;2023-09-08T12:39:57;29.75;40.82
68511;SHT31;55512;50.102;19.958;2023-09-08T12:42:23;29.72;40.61
68511;SHT31;55512;50.102;19.958;2023-09-08T12:44:54;29.70;40.79
68511;SHT31;55512;50.102;19.958;2023-09-08T12:47:20;29.78;40.89
68511;SHT31;55512;50.102;19.958;2023-09-08T12:49:45;29.90;40.59
68511;SHT31;55512;50.102;19.958;2023-09-08T12:52:11;29.99;40.28
68511;SHT31;55512;50.102;19.958;2023-09-08T12:54:36;30.14;40.24
68511;SHT31;55512;50.102;19.958;2023-09-08T12:57:02;30.29;40.05
68511;SHT31;55512;50.102;19.958;2023-09-08T12:59:27;30.45;39.87
68511;SHT31;55512;50.102;19.958;2023-09-08T13:01:53;30.61;39.64
68511;SHT31;55512;50.102;19.958;2023-09-08T13:04:19;30.72;39.09
68511;SHT31;55512;50.102;19.958;2023-09-08T13:06:45;30.73;39.07
68511;SHT31;55512;50.102;19.958;2023-09-08T13:09:11;30.75;39.03
68511;SHT31;55512;50.102;19.958;2023-09-08T13:11:36;30.77;38.99
68511;SHT31;55512;50.102;19.958;2023-09-08T13:14:02;30.83;38.97
68511;SHT31;55512;50.102;19.958;2023-09-08T13:16:28;30.83;38.54
68511;SHT31;55512;50.102;19.958;2023-09-08T13:18:54;30.78;38.55
68511;SHT31;55512;50.102;19.958;2023-09-08T13:21:20;30.79;38.63
68511;SHT31;55512;50.102;19.958;2023-09-08T13:23:45;30.86;38.48
68511;SHT31;55512;50.102;19.958;2023-09-08T13:26:11;30.97;38.43
68511;SHT31;55512;50.102;19.958;2023-09-08T13:28:36;31.06;38.03
68511;SHT31;55512;50.102;19.958;2023-09-08T13:31:02;31.09;37.83
68511;SHT31;55512;50.102;19.958;2023-09-08T13:33:27;31.08;37.79
68511;SHT31;55512;50.102;19.958;2023-09-08T13:35:53;31.18;37.67
68511;SHT31;55512;50.102;19.958;2023-09-08T13:38:19;31.16;37.57
68511;SHT31;55512;50.102;19.958;2023-09-08T13:40:45;31.17;38.01
68511;SHT31;55512;50.102;19.958;2023-09-08T13:43:10;31.29;37.76
68511;SHT31;55512;50.102;19.958;2023-09-08T13:45:36;31.41;37.35
68511;SHT31;55512;50.102;19.958;2023-09-08T13:48:02;31.46;37.23
68511;SHT31;55512;50.102;19.958;2023-09-08T13:50:29;31.56;37.27
68511;SHT31;55512;50.102;19.958;2023-09-08T13:52:55;31.75;36.79
68511;SHT31;55512;50.102;19.958;2023-09-08T13:55:20;31.95;36.70
68511;SHT31;55512;50.102;19.958;2023-09-08T13:57:48;32.20;36.49
68511;SHT31;55512;50.102;19.958;2023-09-08T14:00:15;32.44;35.93
68511;SHT31;55512;50.102;19.958;2023-09-08T14:02:42;32.60;35.76
68511;SHT31;55512;50.102;19.958;2023-09-08T14:05:09;32.93;35.43
68511;SHT31;55512;50.102;19.958;2023-09-08T14:07:34;33.40;34.80
68511;SHT31;55512;50.102;19.958;2023-09-08T14:10:00;34.28;33.93
68511;SHT31;55512;50.102;19.958;2023-09-08T14:12:26;36.11;32.23
68511;SHT31;55512;50.102;19.958;2023-09-08T14:14:52;38.39;30.13
68511;SHT31;55512;50.102;19.958;2023-09-08T14:17:17;40.35;27.72
68511;SHT31;55512;50.102;19.958;2023-09-08T14:19:43;41.39;26.97
68511;SHT31;55512;50.102;19.958;2023-09-08T14:22:08;42.65;26.16
68511;SHT31;55512;50.102;19.958;2023-09-08T14:24:34;43.87;25.00
68511;SHT31;55512;50.102;19.958;2023-09-08T14:26:59;45.09;24.17
68511;SHT31;55512;50.102;19.958;2023-09-08T14:29:24;46.22;23.18
68511;SHT31;55512;50.102;19.958;2023-09-08T14:31:50;47.19;22.06
68511;SHT31;55512;50.102;19.958;2023-09-08T14:34:15;48.21;21.19
68511;SHT31;55512;50.102;19.958;2023-09-08T14:36:41;49.01;20.36
68511;SHT31;55512;50.102;19.958;2023-09-08T14:39:06;49.46;19.87
68511;SHT31;55512;50.102;19.958;2023-09-08T14:41:31;49.75;19.44
68511;SHT31;55512;50.102;19.958;2023-09-08T14:43:57;49.96;19.15
68511;SHT31;55512;50.102;19.958;2023-09-08T14:46:22;50.32;18.76
68511;SHT31;55512;50.102;19.958;2023-09-08T14:48:48;50.74;18.34
68511;SHT31;55512;50.102;19.958;2023-09-08T14:51:13;51.16;17.90
68511;SHT31;55512;50.102;19.958;2023-09-08T14:53:39;51.35;17.61
68511;SHT31;55512;50.102;19.958;2023-09-08T14:56:04;51.49;17.49
68511;SHT31;55512;50.102;19.958;2023-09-08T14:58:30;51.72;17.38
68511;SHT31;55512;50.102;19.958;2023-09-08T15:00:59;51.86;17.13
68511;SHT31;55512;50.102;19.958;2023-09-08T15:03:34;52.18;16.89
68511;SHT31;55512;50.102;19.958;2023-09-08T15:05:59;52.53;16.60
68511;SHT31;55512;50.102;19.958;2023-09-08T15:08:26;52.88;16.30
68511;SHT31;55512;50.102;19.958;2023-09-08T15:10:53;53.11;16.02
68511;SHT31;55512;50.102;19.958;2023-09-08T15:13:18;53.03;16.00
68511;SHT31;55512;50.102;19.958;2023-09-08T15:15:44;52.89;15.97
68511;SHT31;55512;50.102;19.958;2023-09-08T15:18:09;52.97;15.87
68511;SHT31;55512;50.102;19.958;2023-09-08T15:20:35;53.06;15.76
68511;SHT31;55512;50.102;19.958;2023-09-08T15:23:01;53.05;15.71
68511;SHT31;55512;50.102;19.958;2023-09-08T15:25:26;52.92;15.67
68511;SHT31;55512;50.102;19.958;2023-09-08T15:27:51;52.99;15.69
68511;SHT31;55512;50.102;19.958;2023-09-08T15:30:18;52.90;15.47